sensor_id;sensor_type;location;lat;lon;timestamp;temperature;humidity
16532;DHT22;66872;63.142;14.482;2023-06-10T00:00:13;18.70;20.70
16532;DHT22;66872;63.142;14.482;2023-06-10T00:02:41;18.60;99.90
16532;DHT22;66872;63.142;14.482;2023-06-10T00:05:07;18.60;99.90
16532;DHT22;66872;63.142;14.482;2023-06-10T00:07:33;18.60;96.20
16532;DHT22;66872;63.142;14.482;2023-06-10T00:10:07;18.60;99.90
16532;DHT22;66872;63.142;14.482;2023-06-10T00:12:32;18.60;34.20
16532;DHT22;66872;63.142;14.482;2023-06-10T00:15:04;18.60;81.90
16532;DHT22;66872;63.142;14.482;2023-06-10T00:17:30;18.60;39.80
16532;DHT22;66872;63.142;14.482;2023-06-10T00:19:56;18.60;99.90
16532;DHT22;66872;63.142;14.482;2023-06-10T00:22:23;18.60;99.90
16532;DHT22;66872;63.142;14.482;2023-06-10T00:24:50;18.60;23.20
16532;DHT22;66872;63.142;14.482;2023-06-10T00:27:16;18.60;28.10
16532;DHT22;66872;63.142;14.482;2023-06-10T00:29:42;18.60;70.60
16532;DHT22;66872;63.142;14.482;2023-06-10T00:32:08;18.50;99.90
16532;DHT22;66872;63.142;14.482;2023-06-10T00:34:33;18.50;99.90
16532;DHT22;66872;63.142;14.482;2023-06-10T00:36:59;18.50;82.30
16532;DHT22;66872;63.142;14.482;2023-06-10T00:39:25;18.60;99.90
16532;DHT22;66872;63.142;14.482;2023-06-10T00:41:50;18.50;99.90
16532;DHT22;66872;63.142;14.482;2023-06-10T00:44:16;18.50;99.90
16532;DHT22;66872;63.142;14.482;2023-06-10T00:46:42;18.50;99.90
16532;DHT22;66872;63.142;14.482;2023-06-10T00:49:08;18.50;68.70
16532;DHT22;66872;63.142;14.482;2023-06-10T00:51:35;18.50;88.90
16532;DHT22;66872;63.142;14.482;2023-06-10T00:54:01;18.50;99.90
16532;DHT22;66872;63.142;14.482;2023-06-10T00:56:27;18.50;72.90
16532;DHT22;66872;63.142;14.482;2023-06-10T00:58:54;18.50;99.90
16532;DHT22;66872;63.142;14.482;2023-06-10T01:01:19;18.50;99.90
16532;DHT22;66872;63.142;14.482;2023-06-10T01:03:45;18.50;99.90
16532;DHT22;66872;63.142;14.482;2023-06-10T01:06:25;18.50;1.00
16532;DHT22;66872;63.142;14.482;2023-06-10T01:09:14;18.50;1.00
16532;DHT22;66872;63.142;14.482;2023-06-10T01:11:48;18.50;99.90
16532;DHT22;66872;63.142;14.482;2023-06-10T01:14:17;18.50;1.00
16532;DHT22;66872;63.142;14.482;2023-06-10T01:16:44;18.50;99.90
16532;DHT22;66872;63.142;14.482;2023-06-10T01:19:11;18.40;99.90
16532;DHT22;66872;63.142;14.482;2023-06-10T01:21:38;18.40;99.90
16532;DHT22;66872;63.142;14.482;2023-06-10T01:24:05;18.40;99.90
16532;DHT22;66872;63.142;14.482;2023-06-10T01:26:34;18.40;99.90
16532;DHT22;66872;63.142;14.482;2023-06-10T01:29:07;18.40;99.90
16532;DHT22;66872;63.142;14.482;2023-06-10T01:31:52;18.40;99.90
16532;DHT22;66872;63.142;14.482;2023-06-10T01:34:21;18.40;99.90
16532;DHT22;66872;63.142;14.482;2023-06-10T01:36:49;18.40;99.90
16532;DHT22;66872;63.142;14.482;2023-06-10T01:39:16;18.40;99.90
16532;DHT22;66872;63.142;14.482;2023-06-10T01:41:42;18.40;99.90
16532;DHT22;66872;63.142;14.482;2023-06-10T01:44:09;18.30;99.90
16532;DHT22;66872;63.142;14.482;2023-06-10T01:46:35;18.40;99.90
16532;DHT22;66872;63.142;14.482;2023-06-10T01:49:00;18.40;99.90
16532;DHT22;66872;63.142;14.482;2023-06-10T01:51:26;18.40;99.90
16532;DHT22;66872;63.142;14.482;2023-06-10T01:53:52;18.40;97.10
16532;DHT22;66872;63.142;14.482;2023-06-10T01:56:17;18.30;93.90
16532;DHT22;66872;63.142;14.482;2023-06-10T01:58:46;18.40;99.90
16532;DHT22;66872;63.142;14.482;2023-06-10T02:01:11;18.40;24.60
16532;DHT22;66872;63.142;14.482;2023-06-10T02:03:37;18.40;99.90
16532;DHT22;66872;63.142;14.482;2023-06-10T02:06:03;18.30;92.50
16532;DHT22;66872;63.142;14.482;2023-06-10T02:08:29;18.30;89.00
16532;DHT22;66872;63.142;14.482;2023-06-10T02:10:55;18.30;41.20
16532;DHT22;66872;63.142;14.482;2023-06-10T02:13:20;18.30;93.70
16532;DHT22;66872;63.142;14.482;2023-06-10T02:15:46;18.30;67.40
16532;DHT22;66872;63.142;14.482;2023-06-10T02:18:12;18.30;62.00
16532;DHT22;66872;63.142;14.482;2023-06-10T02:20:38;18.30;19.20
16532;DHT22;66872;63.142;14.482;2023-06-10T02:23:04;18.30;1.00
16532;DHT22;66872;63.142;14.482;2023-06-10T02:25:30;18.30;99.90
16532;DHT22;66872;63.142;14.482;2023-06-10T02:27:55;18.30;5.70
16532;DHT22;66872;63.142;14.482;2023-06-10T02:30:21;18.30;1.00
16532;DHT22;66872;63.142;14.482;2023-06-10T02:32:47;18.30;1.00
16532;DHT22;66872;63.142;14.482;2023-06-10T02:35:16;18.30;84.00
16532;DHT22;66872;63.142;14.482;2023-06-10T02:37:43;18.30;1.00
16532;DHT22;66872;63.142;14.482;2023-06-10T02:40:09;18.30;1.00
16532;DHT22;66872;63.142;14.482;2023-06-10T02:42:36;18.30;29.20
16532;DHT22;66872;63.142;14.482;2023-06-10T02:45:02;18.30;10.20
16532;DHT22;66872;63.142;14.482;2023-06-10T02:47:27;18.30;99.90
16532;DHT22;66872;63.142;14.482;2023-06-10T02:49:53;18.30;1.00
16532;DHT22;66872;63.142;14.482;2023-06-10T02:52:18;18.30;1.00
16532;DHT22;66872;63.142;14.482;2023-06-10T02:54:44;18.30;1.00
16532;DHT22;66872;63.142;14.482;2023-06-10T02:57:11;18.30;1.00
16532;DHT22;66872;63.142;14.482;2023-06-10T02:59:36;18.40;1.00
16532;DHT22;66872;63.142;14.482;2023-06-10T03:02:02;18.30;1.00
16532;DHT22;66872;63.142;14.482;2023-06-10T03:04:28;18.40;1.00
16532;DHT22;66872;63.142;14.482;2023-06-10T03:06:55;18.40;1.00
16532;DHT22;66872;63.142;14.482;2023-06-10T03:09:21;18.40;1.00
16532;DHT22;66872;63.142;14.482;2023-06-10T03:11:46;18.40;1.00
16532;DHT22;66872;63.142;14.482;2023-06-10T03:14:12;18.40;1.00
16532;DHT22;66872;63.142;14.482;2023-06-10T03:16:38;18.40;1.00
16532;DHT22;66872;63.142;14.482;2023-06-10T03:19:08;18.50;1.00
16532;DHT22;66872;63.142;14.482;2023-06-10T03:21:34;18.50;1.00
16532;DHT22;66872;63.142;14.482;2023-06-10T03:24:00;18.60;1.00
16532;DHT22;66872;63.142;14.482;2023-06-10T03:26:26;18.70;1.00
16532;DHT22;66872;63.142;14.482;2023-06-10T03:28:53;18.70;1.00
16532;DHT22;66872;63.142;14.482;2023-06-10T03:31:19;18.80;1.00
16532;DHT22;66872;63.142;14.482;2023-06-10T03:33:44;18.80;1.00
16532;DHT22;66872;63.142;14.482;2023-06-10T03:36:10;18.80;1.00
16532;DHT22;66872;63.142;14.482;2023-06-10T03:38:36;18.90;1.00
16532;DHT22;66872;63.142;14.482;2023-06-10T03:41:02;18.90;1.00
16532;DHT22;66872;63.142;14.482;2023-06-10T03:43:28;19.00;1.00
16532;DHT22;66872;63.142;14.482;2023-06-10T03:45:53;19.00;1.00
16532;DHT22;66872;63.142;14.482;2023-06-10T03:48:19;19.10;1.00
16532;DHT22;66872;63.142;14.482;2023-06-10T03:50:45;19.20;1.00
16532;DHT22;66872;63.142;14.482;2023-06-10T03:53:12;19.20;1.00
16532;DHT22;66872;63.142;14.482;2023-06-10T03:55:38;19.30;1.00
16532;DHT22;66872;63.142;14.482;2023-06-10T03:58:04;19.40;1.00
16532;DHT22;66872;63.142;14.482;2023-06-10T04:00:29;19.50;1.00
16532;DHT22;66872;63.142;14.482;2023-06-10T04:02:55;19.60;1.00
16532;DHT22;66872;63.142;14.482;2023-06-10T04:05:23;19.70;1.00
16532;DHT22;66872;63.142;14.482;2023-06-10T04:07:49;19.80;1.00
16532;DHT22;66872;63.142;14.482;2023-06-10T04:10:15;19.90;1.00
16532;DHT22;66872;63.142;14.482;2023-06-10T04:12:41;19.90;1.00
16532;DHT22;66872;63.142;14.482;2023-06-10T04:15:08;19.90;1.00
16532;DHT22;66872;63.142;14.482;2023-06-10T04:17:33;19.80;1.00
16532;DHT22;66872;63.142;14.482;2023-06-10T04:20:00;19.80;1.00
16532;DHT22;66872;63.142;14.482;2023-06-10T04:22:26;19.90;1.00
16532;DHT22;66872;63.142;14.482;2023-06-10T04:24:52;20.00;1.00
16532;DHT22;66872;63.142;14.482;2023-06-10T04:27:18;20.10;1.00
16532;DHT22;66872;63.142;14.482;2023-06-10T04:29:43;20.20;1.00
16532;DHT22;66872;63.142;14.482;2023-06-10T04:32:09;20.30;1.00
16532;DHT22;66872;63.142;14.482;2023-06-10T04:34:35;20.50;1.00
16532;DHT22;66872;63.142;14.482;2023-06-10T04:37:01;20.60;1.00
16532;DHT22;66872;63.142;14.482;2023-06-10T04:39:28;20.70;1.00
16532;DHT22;66872;63.142;14.482;2023-06-10T04:41:53;20.80;1.00
16532;DHT22;66872;63.142;14.482;2023-06-10T04:44:19;20.90;1.00
16532;DHT22;66872;63.142;14.482;2023-06-10T04:46:45;21.00;1.00
16532;DHT22;66872;63.142;14.482;2023-06-10T04:49:11;21.10;1.00
16532;DHT22;66872;63.142;14.482;2023-06-10T04:51:39;21.20;1.00
16532;DHT22;66872;63.142;14.482;2023-06-10T04:54:05;21.30;1.00
16532;DHT22;66872;63.142;14.482;2023-06-10T04:56:31;21.40;1.00
16532;DHT22;66872;63.142;14.482;2023-06-10T04:58:57;21.50;1.00
16532;DHT22;66872;63.142;14.482;2023-06-10T05:01:23;21.60;1.00
16532;DHT22;66872;63.142;14.482;2023-06-10T05:03:49;21.50;1.00
16532;DHT22;66872;63.142;14.482;2023-06-10T05:06:14;21.40;1.00
16532;DHT22;66872;63.142;14.482;2023-06-10T05:08:40;21.20;1.00
16532;DHT22;66872;63.142;14.482;2023-06-10T05:11:06;21.20;1.00
16532;DHT22;66872;63.142;14.482;2023-06-10T05:13:32;21.20;1.00
16532;DHT22;66872;63.142;14.482;2023-06-10T05:15:58;21.20;1.00
16532;DHT22;66872;63.142;14.482;2023-06-10T05:18:23;21.10;1.00
16532;DHT22;66872;63.142;14.482;2023-06-10T05:20:49;21.20;1.00
16532;DHT22;66872;63.142;14.482;2023-06-10T05:23:15;21.30;1.00
16532;DHT22;66872;63.142;14.482;2023-06-10T05:25:40;21.50;1.00
16532;DHT22;66872;63.142;14.482;2023-06-10T05:28:07;21.60;1.00
16532;DHT22;66872;63.142;14.482;2023-06-10T05:30:35;21.80;1.00
16532;DHT22;66872;63.142;14.482;2023-06-10T05:33:03;21.90;1.00
16532;DHT22;66872;63.142;14.482;2023-06-10T05:35:28;22.00;1.00
16532;DHT22;66872;63.142;14.482;2023-06-10T05:37:54;22.10;1.00
16532;DHT22;66872;63.142;14.482;2023-06-10T05:40:20;22.20;1.00
16532;DHT22;66872;63.142;14.482;2023-06-10T05:42:45;22.30;1.00
16532;DHT22;66872;63.142;14.482;2023-06-10T05:45:11;22.40;1.00
16532;DHT22;66872;63.142;14.482;2023-06-10T05:47:37;22.50;1.00
16532;DHT22;66872;63.142;14.482;2023-06-10T05:50:03;22.60;1.00
16532;DHT22;66872;63.142;14.482;2023-06-10T05:52:33;22.70;1.00
16532;DHT22;66872;63.142;14.482;2023-06-10T05:54:58;22.70;1.00
16532;DHT22;66872;63.142;14.482;2023-06-10T05:57:25;22.80;1.00
16532;DHT22;66872;63.142;14.482;2023-06-10T05:59:51;22.90;99.90
16532;DHT22;66872;63.142;14.482;2023-06-10T06:02:17;23.00;58.10
16532;DHT22;66872;63.142;14.482;2023-06-10T06:04:43;23.10;56.10
16532;DHT22;66872;63.142;14.482;2023-06-10T06:07:09;23.10;99.90
16532;DHT22;66872;63.142;14.482;2023-06-10T06:09:35;23.10;1.00
16532;DHT22;66872;63.142;14.482;2023-06-10T06:12:00;23.10;15.50
16532;DHT22;66872;63.142;14.482;2023-06-10T06:14:26;23.20;1.00
16532;DHT22;66872;63.142;14.482;2023-06-10T06:16:52;23.20;1.00
16532;DHT22;66872;63.142;14.482;2023-06-10T06:19:17;23.30;32.00
16532;DHT22;66872;63.142;14.482;2023-06-10T06:21:43;23.40;44.00
16532;DHT22;66872;63.142;14.482;2023-06-10T06:24:09;23.40;99.90
16532;DHT22;66872;63.142;14.482;2023-06-10T06:26:34;23.50;99.90
16532;DHT22;66872;63.142;14.482;2023-06-10T06:29:00;23.50;99.90
16532;DHT22;66872;63.142;14.482;2023-06-10T06:31:26;23.60;1.00
16532;DHT22;66872;63.142;14.482;2023-06-10T06:33:51;23.70;99.90
16532;DHT22;66872;63.142;14.482;2023-06-10T06:36:17;23.70;1.00
16532;DHT22;66872;63.142;14.482;2023-06-10T06:38:43;23.80;99.90
16532;DHT22;66872;63.142;14.482;2023-06-10T06:41:08;23.80;99.90
16532;DHT22;66872;63.142;14.482;2023-06-10T06:43:34;23.90;1.00
16532;DHT22;66872;63.142;14.482;2023-06-10T06:46:00;24.00;99.90
16532;DHT22;66872;63.142;14.482;2023-06-10T06:48:25;24.00;99.90
16532;DHT22;66872;63.142;14.482;2023-06-10T06:50:51;24.10;1.00
16532;DHT22;66872;63.142;14.482;2023-06-10T06:53:17;24.10;1.00
16532;DHT22;66872;63.142;14.482;2023-06-10T06:55:43;24.10;1.00
16532;DHT22;66872;63.142;14.482;2023-06-10T06:58:08;24.10;20.20
16532;DHT22;66872;63.142;14.482;2023-06-10T07:00:34;24.10;1.00
16532;DHT22;66872;63.142;14.482;2023-06-10T07:02:59;24.20;1.00
16532;DHT22;66872;63.142;14.482;2023-06-10T07:05:25;24.20;1.00
16532;DHT22;66872;63.142;14.482;2023-06-10T07:07:54;24.30;1.00
16532;DHT22;66872;63.142;14.482;2023-06-10T07:10:21;24.30;1.00
16532;DHT22;66872;63.142;14.482;2023-06-10T07:12:47;24.30;1.00
16532;DHT22;66872;63.142;14.482;2023-06-10T07:15:13;24.30;1.00
16532;DHT22;66872;63.142;14.482;2023-06-10T07:17:39;24.30;1.00
16532;DHT22;66872;63.142;14.482;2023-06-10T07:20:05;24.30;1.00
16532;DHT22;66872;63.142;14.482;2023-06-10T07:22:31;24.30;1.00
16532;DHT22;66872;63.142;14.482;2023-06-10T07:24:57;24.20;1.00
16532;DHT22;66872;63.142;14.482;2023-06-10T07:27:23;24.20;1.00
16532;DHT22;66872;63.142;14.482;2023-06-10T07:29:49;24.10;1.00
16532;DHT22;66872;63.142;14.482;2023-06-10T07:32:14;24.10;1.00
16532;DHT22;66872;63.142;14.482;2023-06-10T07:34:40;24.10;1.00
16532;DHT22;66872;63.142;14.482;2023-06-10T07:37:06;24.10;1.00
16532;DHT22;66872;63.142;14.482;2023-06-10T07:39:31;24.00;1.00
16532;DHT22;66872;63.142;14.482;2023-06-10T07:41:57;24.00;1.00
16532;DHT22;66872;63.142;14.482;2023-06-10T07:44:23;24.00;1.00
16532;DHT22;66872;63.142;14.482;2023-06-10T07:46:49;23.90;1.00
16532;DHT22;66872;63.142;14.482;2023-06-10T07:49:14;23.90;1.00
16532;DHT22;66872;63.142;14.482;2023-06-10T07:51:40;23.90;1.00
16532;DHT22;66872;63.142;14.482;2023-06-10T07:54:06;23.90;1.00
16532;DHT22;66872;63.142;14.482;2023-06-10T07:56:31;23.80;1.00
16532;DHT22;66872;63.142;14.482;2023-06-10T07:58:57;23.80;1.00
16532;DHT22;66872;63.142;14.482;2023-06-10T08:01:23;23.80;1.00
16532;DHT22;66872;63.142;14.482;2023-06-10T08:03:49;23.70;1.00
16532;DHT22;66872;63.142;14.482;2023-06-10T08:06:15;23.70;1.00
16532;DHT22;66872;63.142;14.482;2023-06-10T08:08:43;23.60;1.00
16532;DHT22;66872;63.142;14.482;2023-06-10T08:11:11;23.60;1.00
16532;DHT22;66872;63.142;14.482;2023-06-10T08:13:37;23.60;1.00
16532;DHT22;66872;63.142;14.482;2023-06-10T08:16:03;23.50;1.00
16532;DHT22;66872;63.142;14.482;2023-06-10T08:18:29;23.50;1.00
16532;DHT22;66872;63.142;14.482;2023-06-10T08:20:54;23.50;1.00
16532;DHT22;66872;63.142;14.482;2023-06-10T08:23:20;23.50;1.00
16532;DHT22;66872;63.142;14.482;2023-06-10T08:25:46;23.50;1.00
16532;DHT22;66872;63.142;14.482;2023-06-10T08:28:12;23.40;1.00
16532;DHT22;66872;63.142;14.482;2023-06-10T08:30:37;23.40;1.00
16532;DHT22;66872;63.142;14.482;2023-06-10T08:33:03;23.40;1.00
16532;DHT22;66872;63.142;14.482;2023-06-10T08:35:29;23.30;1.00
16532;DHT22;66872;63.142;14.482;2023-06-10T08:37:55;23.30;1.00
16532;DHT22;66872;63.142;14.482;2023-06-10T08:40:21;23.30;1.00
16532;DHT22;66872;63.142;14.482;2023-06-10T08:43:00;23.20;1.00
16532;DHT22;66872;63.142;14.482;2023-06-10T08:45:30;23.20;1.00
16532;DHT22;66872;63.142;14.482;2023-06-10T08:48:05;23.20;1.00
16532;DHT22;66872;63.142;14.482;2023-06-10T08:50:37;23.20;1.00
16532;DHT22;66872;63.142;14.482;2023-06-10T08:53:07;23.10;1.00
16532;DHT22;66872;63.142;14.482;2023-06-10T08:55:38;23.10;1.00
16532;DHT22;66872;63.142;14.482;2023-06-10T08:58:04;23.00;1.00
16532;DHT22;66872;63.142;14.482;2023-06-10T09:00:31;23.00;1.00
16532;DHT22;66872;63.142;14.482;2023-06-10T09:02:58;23.00;1.00
16532;DHT22;66872;63.142;14.482;2023-06-10T09:05:24;22.90;1.00
16532;DHT22;66872;63.142;14.482;2023-06-10T09:07:52;22.90;1.00
16532;DHT22;66872;63.142;14.482;2023-06-10T09:10:18;22.90;1.00
16532;DHT22;66872;63.142;14.482;2023-06-10T09:12:44;22.90;1.00
16532;DHT22;66872;63.142;14.482;2023-06-10T09:15:10;22.80;1.00
16532;DHT22;66872;63.142;14.482;2023-06-10T09:17:38;22.80;1.00
16532;DHT22;66872;63.142;14.482;2023-06-10T09:20:07;22.80;1.00
16532;DHT22;66872;63.142;14.482;2023-06-10T09:22:33;22.80;1.00
16532;DHT22;66872;63.142;14.482;2023-06-10T09:25:09;22.80;1.00
16532;DHT22;66872;63.142;14.482;2023-06-10T09:27:51;22.70;1.00
16532;DHT22;66872;63.142;14.482;2023-06-10T09:30:31;22.70;1.00
16532;DHT22;66872;63.142;14.482;2023-06-10T09:32:58;22.60;1.00
16532;DHT22;66872;63.142;14.482;2023-06-10T09:35:28;22.60;1.00
16532;DHT22;66872;63.142;14.482;2023-06-10T09:37:59;22.60;1.00
16532;DHT22;66872;63.142;14.482;2023-06-10T09:40:25;22.50;1.00
16532;DHT22;66872;63.142;14.482;2023-06-10T09:42:56;22.50;1.00
16532;DHT22;66872;63.142;14.482;2023-06-10T09:45:22;22.50;1.00
16532;DHT22;66872;63.142;14.482;2023-06-10T09:47:54;22.40;1.00
16532;DHT22;66872;63.142;14.482;2023-06-10T09:50:21;22.40;1.00
16532;DHT22;66872;63.142;14.482;2023-06-10T09:52:47;22.40;1.00
16532;DHT22;66872;63.142;14.482;2023-06-10T09:55:13;22.30;1.00
16532;DHT22;66872;63.142;14.482;2023-06-10T09:57:39;22.30;1.00
16532;DHT22;66872;63.142;14.482;2023-06-10T10:00:08;22.20;1.00
16532;DHT22;66872;63.142;14.482;2023-06-10T10:02:50;22.20;1.00
16532;DHT22;66872;63.142;14.482;2023-06-10T10:05:18;22.10;1.00
16532;DHT22;66872;63.142;14.482;2023-06-10T10:07:45;22.10;1.00
16532;DHT22;66872;63.142;14.482;2023-06-10T10:10:13;22.00;1.00
16532;DHT22;66872;63.142;14.482;2023-06-10T10:12:39;22.00;1.00
16532;DHT22;66872;63.142;14.482;2023-06-10T10:15:07;21.90;1.00
16532;DHT22;66872;63.142;14.482;2023-06-10T10:18:13;21.90;1.00
16532;DHT22;66872;63.142;14.482;2023-06-10T10:20:47;21.90;1.00
16532;DHT22;66872;63.142;14.482;2023-06-10T10:23:20;21.80;1.00
16532;DHT22;66872;63.142;14.482;2023-06-10T10:25:52;21.80;1.00
16532;DHT22;66872;63.142;14.482;2023-06-10T10:28:20;21.70;1.00
16532;DHT22;66872;63.142;14.482;2023-06-10T10:30:49;21.70;1.00
16532;DHT22;66872;63.142;14.482;2023-06-10T10:33:19;21.70;1.00
16532;DHT22;66872;63.142;14.482;2023-06-10T10:35:46;21.60;1.00
16532;DHT22;66872;63.142;14.482;2023-06-10T10:38:12;21.60;3.10
16532;DHT22;66872;63.142;14.482;2023-06-10T10:40:39;21.50;99.90
16532;DHT22;66872;63.142;14.482;2023-06-10T10:43:05;21.50;1.00
16532;DHT22;66872;63.142;14.482;2023-06-10T10:45:33;21.50;61.10
16532;DHT22;66872;63.142;14.482;2023-06-10T10:48:06;21.40;1.00
16532;DHT22;66872;63.142;14.482;2023-06-10T10:50:34;21.40;1.00
16532;DHT22;66872;63.142;14.482;2023-06-10T10:53:01;21.40;99.90
16532;DHT22;66872;63.142;14.482;2023-06-10T10:55:28;21.40;1.00
16532;DHT22;66872;63.142;14.482;2023-06-10T10:58:05;21.30;3.70
16532;DHT22;66872;63.142;14.482;2023-06-10T11:00:33;21.30;99.90
16532;DHT22;66872;63.142;14.482;2023-06-10T11:05:39;21.30;40.70
16532;DHT22;66872;63.142;14.482;2023-06-10T11:08:07;21.30;22.90
16532;DHT22;66872;63.142;14.482;2023-06-10T11:10:37;21.30;68.40
16532;DHT22;66872;63.142;14.482;2023-06-10T11:13:29;21.30;1.00
16532;DHT22;66872;63.142;14.482;2023-06-10T11:15:58;21.30;16.40
16532;DHT22;66872;63.142;14.482;2023-06-10T11:18:28;21.30;30.70
16532;DHT22;66872;63.142;14.482;2023-06-10T11:21:03;21.30;1.00
16532;DHT22;66872;63.142;14.482;2023-06-10T11:23:32;21.20;99.90
16532;DHT22;66872;63.142;14.482;2023-06-10T11:28:39;21.30;99.90
16532;DHT22;66872;63.142;14.482;2023-06-10T11:31:05;21.30;99.90
16532;DHT22;66872;63.142;14.482;2023-06-10T11:33:31;21.30;25.50
16532;DHT22;66872;63.142;14.482;2023-06-10T11:35:57;21.30;59.60
16532;DHT22;66872;63.142;14.482;2023-06-10T11:38:26;21.30;99.90
16532;DHT22;66872;63.142;14.482;2023-06-10T11:40:52;21.20;99.90
16532;DHT22;66872;63.142;14.482;2023-06-10T11:43:18;21.20;99.90
16532;DHT22;66872;63.142;14.482;2023-06-10T11:45:44;21.20;99.90
16532;DHT22;66872;63.142;14.482;2023-06-10T11:48:10;21.20;99.90
16532;DHT22;66872;63.142;14.482;2023-06-10T11:50:37;21.20;99.90
16532;DHT22;66872;63.142;14.482;2023-06-10T11:53:03;21.20;99.90
16532;DHT22;66872;63.142;14.482;2023-06-10T11:55:50;21.20;99.90
16532;DHT22;66872;63.142;14.482;2023-06-10T11:58:20;21.10;99.90
16532;DHT22;66872;63.142;14.482;2023-06-10T12:00:54;21.20;99.90
16532;DHT22;66872;63.142;14.482;2023-06-10T12:03:21;21.10;99.90
16532;DHT22;66872;63.142;14.482;2023-06-10T12:06:04;21.10;99.90
16532;DHT22;66872;63.142;14.482;2023-06-10T12:08:30;21.10;99.90
16532;DHT22;66872;63.142;14.482;2023-06-10T12:10:57;21.10;13.90
16532;DHT22;66872;63.142;14.482;2023-06-10T12:13:27;21.00;99.90
16532;DHT22;66872;63.142;14.482;2023-06-10T12:15:53;21.00;99.90
16532;DHT22;66872;63.142;14.482;2023-06-10T12:18:22;21.00;79.30
16532;DHT22;66872;63.142;14.482;2023-06-10T12:20:49;21.00;99.90
16532;DHT22;66872;63.142;14.482;2023-06-10T12:23:17;21.00;99.90
16532;DHT22;66872;63.142;14.482;2023-06-10T12:25:50;21.00;99.90
16532;DHT22;66872;63.142;14.482;2023-06-10T12:28:26;21.00;99.90
16532;DHT22;66872;63.142;14.482;2023-06-10T12:31:09;21.00;99.90
16532;DHT22;66872;63.142;14.482;2023-06-10T12:33:34;21.00;99.90
16532;DHT22;66872;63.142;14.482;2023-06-10T12:36:00;21.00;99.90
16532;DHT22;66872;63.142;14.482;2023-06-10T12:38:26;21.00;99.90
16532;DHT22;66872;63.142;14.482;2023-06-10T12:41:01;21.00;99.90
16532;DHT22;66872;63.142;14.482;2023-06-10T12:43:27;21.00;99.90
16532;DHT22;66872;63.142;14.482;2023-06-10T12:45:53;21.00;99.90
16532;DHT22;66872;63.142;14.482;2023-06-10T12:48:20;21.00;99.90
16532;DHT22;66872;63.142;14.482;2023-06-10T12:50:57;21.00;99.90
16532;DHT22;66872;63.142;14.482;2023-06-10T12:53:24;21.00;99.90
16532;DHT22;66872;63.142;14.482;2023-06-10T12:55:50;21.00;99.90
16532;DHT22;66872;63.142;14.482;2023-06-10T12:58:16;21.00;99.90
16532;DHT22;66872;63.142;14.482;2023-06-10T13:00:42;21.00;99.90
16532;DHT22;66872;63.142;14.482;2023-06-10T13:03:09;21.00;99.90
16532;DHT22;66872;63.142;14.482;2023-06-10T13:05:36;21.00;1.00
16532;DHT22;66872;63.142;14.482;2023-06-10T13:08:06;20.90;99.90
16532;DHT22;66872;63.142;14.482;2023-06-10T13:10:33;20.90;99.90
16532;DHT22;66872;63.142;14.482;2023-06-10T13:13:00;20.90;99.90
16532;DHT22;66872;63.142;14.482;2023-06-10T13:15:26;20.90;99.90
16532;DHT22;66872;63.142;14.482;2023-06-10T13:17:52;20.90;99.90
16532;DHT22;66872;63.142;14.482;2023-06-10T13:20:18;20.90;99.90
16532;DHT22;66872;63.142;14.482;2023-06-10T13:22:44;20.90;99.90
16532;DHT22;66872;63.142;14.482;2023-06-10T13:25:10;20.90;99.90
16532;DHT22;66872;63.142;14.482;2023-06-10T13:27:36;20.80;99.90
16532;DHT22;66872;63.142;14.482;2023-06-10T13:30:09;20.90;1.00
16532;DHT22;66872;63.142;14.482;2023-06-10T13:32:36;20.80;99.90
16532;DHT22;66872;63.142;14.482;2023-06-10T13:35:02;20.80;99.90
16532;DHT22;66872;63.142;14.482;2023-06-10T13:37:28;20.90;99.90
16532;DHT22;66872;63.142;14.482;2023-06-10T13:39:54;20.80;99.90
16532;DHT22;66872;63.142;14.482;2023-06-10T13:42:20;20.80;99.90
16532;DHT22;66872;63.142;14.482;2023-06-10T13:44:47;20.90;99.90
16532;DHT22;66872;63.142;14.482;2023-06-10T13:47:15;20.90;99.90
16532;DHT22;66872;63.142;14.482;2023-06-10T13:49:41;20.90;90.90
16532;DHT22;66872;63.142;14.482;2023-06-10T13:52:07;20.90;99.90
16532;DHT22;66872;63.142;14.482;2023-06-10T13:54:33;20.90;99.90
16532;DHT22;66872;63.142;14.482;2023-06-10T13:57:01;20.90;99.90
16532;DHT22;66872;63.142;14.482;2023-06-10T13:59:27;20.90;99.90
16532;DHT22;66872;63.142;14.482;2023-06-10T14:01:53;20.90;99.90
16532;DHT22;66872;63.142;14.482;2023-06-10T14:04:18;20.90;1.00
16532;DHT22;66872;63.142;14.482;2023-06-10T14:06:44;20.90;99.90
16532;DHT22;66872;63.142;14.482;2023-06-10T14:09:12;20.90;99.90
16532;DHT22;66872;63.142;14.482;2023-06-10T14:11:38;21.00;99.90
16532;DHT22;66872;63.142;14.482;2023-06-10T14:14:03;21.00;99.90
16532;DHT22;66872;63.142;14.482;2023-06-10T14:16:29;21.00;99.90
16532;DHT22;66872;63.142;14.482;2023-06-10T14:18:54;21.00;99.90
16532;DHT22;66872;63.142;14.482;2023-06-10T14:21:21;21.00;99.90
16532;DHT22;66872;63.142;14.482;2023-06-10T14:23:46;21.00;94.80
16532;DHT22;66872;63.142;14.482;2023-06-10T14:26:14;20.90;99.90
16532;DHT22;66872;63.142;14.482;2023-06-10T14:28:40;20.90;99.90
16532;DHT22;66872;63.142;14.482;2023-06-10T14:31:06;20.90;99.90
16532;DHT22;66872;63.142;14.482;2023-06-10T14:33:32;20.90;99.90
16532;DHT22;66872;63.142;14.482;2023-06-10T14:35:58;20.90;99.90
16532;DHT22;66872;63.142;14.482;2023-06-10T14:38:24;20.90;99.90
16532;DHT22;66872;63.142;14.482;2023-06-10T14:40:50;20.90;99.90
16532;DHT22;66872;63.142;14.482;2023-06-10T14:43:15;20.90;99.90
16532;DHT22;66872;63.142;14.482;2023-06-10T14:45:41;20.90;99.90
16532;DHT22;66872;63.142;14.482;2023-06-10T14:48:07;20.80;99.90
16532;DHT22;66872;63.142;14.482;2023-06-10T14:50:36;20.90;99.90
16532;DHT22;66872;63.142;14.482;2023-06-10T14:53:02;20.90;99.90
16532;DHT22;66872;63.142;14.482;2023-06-10T14:55:28;20.90;99.90
16532;DHT22;66872;63.142;14.482;2023-06-10T14:57:54;20.80;99.90
16532;DHT22;66872;63.142;14.482;2023-06-10T15:00:21;20.90;99.90
16532;DHT22;66872;63.142;14.482;2023-06-10T15:02:49;20.80;99.90
16532;DHT22;66872;63.142;14.482;2023-06-10T15:05:15;20.80;99.90
16532;DHT22;66872;63.142;14.482;2023-06-10T15:07:42;20.80;99.90
16532;DHT22;66872;63.142;14.482;2023-06-10T15:10:08;20.80;99.90
16532;DHT22;66872;63.142;14.482;2023-06-10T15:12:35;20.80;99.90
16532;DHT22;66872;63.142;14.482;2023-06-10T15:15:01;20.80;99.90
16532;DHT22;66872;63.142;14.482;2023-06-10T15:17:27;20.80;99.90
16532;DHT22;66872;63.142;14.482;2023-06-10T15:19:53;20.80;99.90
16532;DHT22;66872;63.142;14.482;2023-06-10T15:22:18;20.80;81.50
16532;DHT22;66872;63.142;14.482;2023-06-10T15:24:44;20.80;96.20
16532;DHT22;66872;63.142;14.482;2023-06-10T15:27:10;20.80;99.90